createdAt,value
2023-05-13T00:08:13.621Z,12.62
2023-05-13T00:18:15.235Z,12.53
2023-05-13T00:28:17.008Z,12.45
2023-05-13T00:38:18.478Z,12.15
2023-05-13T00:48:20.218Z,12.04
2023-05-13T00:58:21.802Z,11.81
2023-05-13T01:08:56.984Z,11.60
2023-05-13T01:19:20.051Z,11.52
2023-05-13T01:29:21.681Z,11.36
2023-05-13T01:39:24.925Z,11.23
2023-05-13T01:49:26.806Z,11.05
2023-05-13T01:59:29.161Z,10.96
2023-05-13T02:09:30.554Z,11.03
2023-05-13T02:19:31.999Z,11.00
2023-05-13T02:29:34.506Z,11.01
2023-05-13T02:39:36.011Z,10.86
2023-05-13T02:49:37.455Z,10.82
2023-05-13T02:59:38.864Z,10.71
2023-05-13T03:09:42.136Z,10.53
2023-05-13T03:19:43.502Z,10.34
2023-05-13T03:29:44.870Z,10.26
2023-05-13T03:39:46.431Z,10.25
2023-05-13T03:49:48.811Z,10.24
2023-05-13T03:59:50.248Z,10.04
2023-05-13T04:09:51.616Z,10.04
2023-05-13T04:19:53.298Z,10.12
2023-05-13T04:29:54.688Z,10.11
2023-05-13T04:39:56.069Z,10.19
2023-05-13T04:49:57.604Z,10.35
2023-05-13T04:59:59.499Z,10.56
2023-05-13T05:10:00.928Z,10.66
2023-05-13T05:20:02.438Z,10.88
2023-05-13T05:30:04.683Z,11.22
2023-05-13T05:40:06.752Z,11.51
2023-05-13T05:50:08.605Z,12.09
2023-05-13T06:00:10.531Z,12.68
2023-05-13T06:10:12.120Z,13.15
2023-05-13T06:20:13.594Z,14.03
2023-05-13T06:30:16.324Z,14.63
2023-05-13T06:40:17.672Z,15.13
2023-05-13T06:50:19.898Z,15.71
2023-05-13T07:00:22.139Z,16.32
2023-05-13T07:10:23.931Z,16.93
2023-05-13T07:20:26.691Z,16.98
2023-05-13T07:30:28.236Z,17.51
2023-05-13T07:40:29.630Z,17.84
2023-05-13T07:50:31.984Z,17.88
2023-05-13T08:00:33.424Z,17.83
2023-05-13T08:10:34.760Z,18.32
2023-05-13T08:20:36.168Z,18.54
2023-05-13T08:30:40.592Z,18.79
2023-05-13T08:40:42.653Z,19.08
2023-05-13T08:50:44.906Z,19.30
2023-05-13T09:00:48.378Z,19.42
2023-05-13T09:10:50.341Z,19.85
2023-05-13T09:20:51.885Z,20.24
2023-05-13T09:30:56.827Z,19.98
2023-05-13T09:41:00.793Z,20.12
2023-05-13T09:51:02.362Z,20.32
2023-05-13T10:01:04.831Z,20.34
2023-05-13T10:11:07.960Z,20.51
2023-05-13T10:21:09.372Z,20.56
2023-05-13T10:31:10.742Z,20.59
2023-05-13T10:41:58.978Z,20.57
2023-05-13T10:52:14.154Z,20.76
2023-05-13T11:02:23.025Z,20.69
2023-05-13T11:12:24.555Z,20.69
2023-05-13T11:22:26.129Z,20.69
2023-05-13T11:32:53.839Z,20.78
2023-05-13T11:42:55.806Z,20.98
2023-05-13T11:52:59.181Z,21.07
2023-05-13T12:03:03.285Z,21.36
2023-05-13T12:13:04.998Z,21.42
2023-05-13T12:23:06.541Z,21.35
2023-05-13T12:33:16.124Z,21.28
2023-05-13T12:43:19.536Z,21.65
2023-05-13T12:53:21.200Z,21.79
2023-05-13T13:03:24.620Z,21.68
2023-05-13T13:13:26.957Z,21.56
2023-05-13T13:23:28.452Z,22.07
2023-05-13T13:33:29.964Z,22.11
2023-05-13T13:43:31.448Z,21.97
2023-05-13T13:53:32.948Z,22.19
2023-05-13T14:03:34.362Z,21.85
2023-05-13T14:13:35.986Z,21.89
2023-05-13T14:23:38.484Z,21.94
2023-05-13T14:33:39.851Z,22.19
2023-05-13T14:43:41.316Z,22.16
2023-05-13T14:53:42.871Z,22.06
2023-05-13T15:03:44.414Z,21.99
2023-05-13T15:13:45.884Z,22.03
2023-05-13T15:23:47.419Z,22.09
2023-05-13T15:33:48.759Z,21.76
2023-05-13T15:43:50.343Z,21.50
2023-05-13T15:53:52.865Z,21.23
2023-05-13T16:03:54.450Z,21.05
2023-05-13T16:13:55.995Z,20.84
2023-05-13T16:23:57.576Z,20.83
2023-05-13T16:33:59.048Z,20.90
2023-05-13T16:44:00.560Z,20.80
2023-05-13T16:54:02.046Z,20.59
2023-05-13T17:04:03.593Z,20.61
2023-05-13T17:14:05.943Z,20.60
2023-05-13T17:24:07.545Z,20.63
2023-05-13T17:34:09.203Z,20.60
2023-05-13T17:44:10.658Z,20.61
2023-05-13T17:54:12.073Z,20.38
2023-05-13T18:04:13.554Z,20.34
2023-05-13T18:14:14.968Z,20.26
2023-05-13T18:24:16.478Z,20.20
2023-05-13T18:34:18.365Z,20.09
2023-05-13T18:44:19.942Z,19.92
2023-05-13T18:54:21.506Z,19.72
2023-05-13T19:04:23.196Z,19.45
2023-05-13T19:14:24.743Z,19.22
2023-05-13T19:24:26.252Z,18.88
2023-05-13T19:34:27.755Z,18.60
2023-05-13T19:44:29.533Z,18.32
2023-05-13T19:54:31.032Z,18.00
2023-05-13T20:04:32.609Z,17.56
2023-05-13T20:14:48.064Z,17.20
2023-05-13T20:24:51.039Z,16.69
2023-05-13T20:34:52.766Z,16.59
2023-05-13T20:44:54.242Z,16.21
2023-05-13T20:54:55.828Z,15.77
2023-05-13T21:04:57.187Z,15.62
2023-05-13T21:14:58.644Z,15.74
2023-05-13T21:25:00.018Z,15.51
2023-05-13T21:35:01.393Z,15.39
2023-05-13T21:45:03.534Z,15.38
2023-05-13T21:55:05.343Z,15.27
2023-05-13T22:05:06.992Z,15.15
2023-05-13T22:15:09.212Z,14.83
2023-05-13T22:25:10.654Z,14.73
2023-05-13T22:35:12.138Z,14.79
2023-05-13T22:45:13.588Z,14.58
2023-05-13T22:55:15.130Z,14.69
2023-05-13T23:05:16.691Z,14.63
2023-05-13T23:15:18.161Z,14.40
2023-05-13T23:25:19.728Z,14.23
2023-05-13T23:35:21.080Z,14.01
2023-05-13T23:45:22.464Z,13.76
2023-05-13T23:55:23.996Z,13.70
